Time;durP1;ratioP1;P1;durP2;ratioP2;P2;SDS_P1;SDS_P2;PMS_P1;PMS_P2;Temp;Humidity;BMP_temperature;BMP_pressure;BME280_temperature;BME280_humidity;BME280_pressure;Samples;Min_cycle;Max_cycle;Signal;HPM_P1;HPM_P2
2023/09/23 00:01:20;;;;;;;;;;;15.40;58.60;;;11.05;100.00;95140.75;5032511;28;20387;-47
2023/09/23 00:03:47;;;;;;;;;;;15.40;58.60;;;11.04;100.00;95145.31;5033778;28;20340;-46
2023/09/23 00:06:13;;;;;;;;;;;15.40;58.70;;;11.05;100.00;95138.88;5034519;28;19912;-46
2023/09/23 00:08:40;;;;;;;;;;;15.40;58.70;;;11.07;100.00;95146.63;5033048;28;20360;-49
2023/09/23 00:11:08;;;;;;;;;;;15.40;58.80;;;11.06;100.00;95140.50;5033224;28;19908;-53
2023/09/23 00:13:35;;;;;;;;;;;15.50;58.90;;;11.06;100.00;95143.16;5032698;28;19913;-52
2023/09/23 00:16:14;;;;;;;;;;;15.50;58.90;;;11.06;100.00;95153.81;5033724;28;20054;-52
2023/09/23 00:18:40;;;;;;;;;;;15.40;58.90;;;11.03;100.00;95154.38;5032628;28;19931;-47
2023/09/23 00:21:08;;;;;;;;;;;15.40;58.90;;;10.99;100.00;95148.00;5031878;28;20363;-50
2023/09/23 00:23:34;;;;;;;;;;;15.40;58.90;;;10.97;100.00;95147.50;5033351;28;20047;-46
2023/09/23 00:26:02;;;;;;;;;;;15.40;59.00;;;10.97;100.00;95152.81;5032425;28;20384;-46
2023/09/23 00:28:30;;;;;;;;;;;15.40;59.20;;;11.02;100.00;95159.97;5033556;28;19912;-48
2023/09/23 00:31:16;;;;;;;;;;;15.30;59.20;;;10.98;100.00;95174.94;5032160;28;19916;-47
2023/09/23 00:33:42;;;;;;;;;;;15.30;59.90;;;10.99;100.00;95182.63;5033024;28;20419;-46
2023/09/23 00:36:09;;;;;;;;;;;15.30;59.30;;;10.99;100.00;95179.97;5033177;28;19956;-52
2023/09/23 00:38:39;;;;;;;;;;;15.30;59.40;;;10.96;100.00;95177.06;5032270;28;20007;-47
2023/09/23 00:41:08;;;;;;;;;;;15.30;59.40;;;10.92;100.00;95178.69;5033219;28;20339;-45
2023/09/23 00:43:37;;;;;;;;;;;15.30;59.50;;;10.92;100.00;95181.38;5019710;28;19945;-46
2023/09/23 00:46:05;;;;;;;;;;;15.20;59.50;;;10.86;100.00;95191.25;5017133;28;19909;-46
2023/09/23 00:48:39;;;;;;;;;;;15.20;59.50;;;10.85;100.00;95181.66;5024660;28;20306;-48
2023/09/23 00:51:07;;;;;;;;;;;15.20;59.60;;;10.82;100.00;95180.34;5020798;28;19916;-49
2023/09/23 00:53:35;;;;;;;;;;;15.20;59.70;;;10.82;100.00;95183.00;5017591;28;19913;-47
2023/09/23 00:56:03;;;;;;;;;;;15.20;60.00;;;10.82;100.00;95183.00;5027519;28;19913;-52
2023/09/23 00:58:29;;;;;;;;;;;15.20;61.00;;;10.83;100.00;95178.47;5031813;28;19908;-48
2023/09/23 01:00:56;;;;;;;;;;;15.10;60.10;;;10.80;100.00;95174.50;5024965;28;20371;-46
2023/09/23 01:03:22;;;;;;;;;;;15.10;60.20;;;10.79;100.00;95174.78;5027358;28;20019;-55
2023/09/23 01:06:11;;;;;;;;;;;15.10;60.40;;;10.77;100.00;95168.91;5024691;28;20443;-48
2023/09/23 01:08:38;;;;;;;;;;;15.10;60.50;;;10.75;100.00;95166.53;5009754;28;19931;-47
2023/09/23 01:11:04;;;;;;;;;;;15.10;60.60;;;10.75;100.00;95173.72;5031360;28;20410;-46
2023/09/23 01:13:30;;;;;;;;;;;15.00;60.50;;;10.75;100.00;95174.53;5031407;28;19944;-49
2023/09/23 01:15:56;;;;;;;;;;;15.00;60.50;;;10.72;100.00;95182.25;5032354;28;19913;-50
2023/09/23 01:18:23;;;;;;;;;;;15.00;61.30;;;10.71;100.00;95186.78;5031677;28;19912;-49
2023/09/23 01:20:51;;;;;;;;;;;15.00;60.60;;;10.68;100.00;95189.22;5024552;28;20003;-46
2023/09/23 01:23:17;;;;;;;;;;;15.00;60.60;;;10.69;100.00;95196.16;5029832;28;19909;-53
2023/09/23 01:25:44;;;;;;;;;;;15.00;60.60;;;10.66;100.00;95200.16;5031163;28;19959;-54
2023/09/23 01:28:13;;;;;;;;;;;15.00;60.60;;;10.64;100.00;95202.28;5032485;28;19959;-50
2023/09/23 01:30:41;;;;;;;;;;;15.00;60.50;;;10.64;100.00;95199.63;5031555;28;19917;-51
2023/09/23 01:33:07;;;;;;;;;;;15.00;60.60;;;10.67;100.00;95209.72;5031834;28;19951;-49
2023/09/23 01:35:34;;;;;;;;;;;15.00;60.60;;;10.65;100.00;95212.69;5032369;28;20383;-49
2023/09/23 01:38:02;;;;;;;;;;;15.00;60.60;;;10.64;100.00;95215.59;5031399;28;19909;-55
2023/09/23 01:40:30;;;;;;;;;;;15.00;60.60;;;10.60;100.00;95219.91;5032141;28;19913;-52
2023/09/23 01:42:57;;;;;;;;;;;15.00;60.50;;;10.58;100.00;95219.34;5030100;28;19924;-49
2023/09/23 01:45:25;;;;;;;;;;;15.00;60.50;;;10.55;100.00;95227.91;5026901;28;19932;-52
2023/09/23 01:47:56;;;;;;;;;;;15.00;60.60;;;10.54;100.00;95226.31;5032121;28;19913;-48
2023/09/23 01:50:24;;;;;;;;;;;15.00;61.20;;;10.48;100.00;95228.19;5030816;28;20325;-50
2023/09/23 01:52:50;;;;;;;;;;;14.90;60.50;;;10.49;100.00;95226.31;5026633;28;19962;-53
2023/09/23 01:55:19;;;;;;;;;;;14.90;60.50;;;10.48;100.00;95230.84;5030907;28;19909;-51
2023/09/23 01:57:48;;;;;;;;;;;14.90;60.60;;;10.46;100.00;95232.97;5031904;28;20402;-53
2023/09/23 02:00:26;;;;;;;;;;;14.90;60.70;;;10.35;100.00;95236.75;5032133;28;20427;-51
2023/09/23 02:02:53;;;;;;;;;;;14.90;60.70;;;10.37;100.00;95231.94;5031105;28;20011;-49
2023/09/23 02:05:22;;;;;;;;;;;14.90;60.80;;;10.42;100.00;95232.72;5032142;28;19912;-52
2023/09/23 02:07:50;;;;;;;;;;;14.80;60.80;;;10.44;100.00;95227.16;5031210;28;20062;-52
2023/09/23 02:10:17;;;;;;;;;;;14.80;60.90;;;10.42;100.00;95232.72;5023948;28;19977;-52
2023/09/23 02:12:44;;;;;;;;;;;14.90;60.90;;;10.38;100.00;95234.34;5030355;28;20275;-52
2023/09/23 02:15:14;;;;;;;;;;;14.90;60.90;;;10.38;100.00;95242.34;5024479;28;19909;-50
2023/09/23 02:17:44;;;;;;;;;;;14.90;60.90;;;10.39;100.00;95246.59;5031359;28;20287;-50
2023/09/23 02:20:19;;;;;;;;;;;14.90;60.90;;;10.37;100.00;95238.09;5024001;28;19936;-53
2023/09/23 02:22:47;;;;;;;;;;;14.90;60.90;;;10.33;100.00;95239.69;5030726;28;19909;-54
2023/09/23 02:25:14;;;;;;;;;;;14.80;60.80;;;10.31;100.00;95241.00;5028532;28;20003;-50
2023/09/23 02:27:41;;;;;;;;;;;14.80;60.80;;;10.28;100.00;95244.22;5030099;28;19916;-49
2023/09/23 02:30:10;;;;;;;;;;;14.80;60.80;;;10.24;100.00;95240.47;5031412;28;19908;-50
2023/09/23 02:32:44;;;;;;;;;;;14.80;60.90;;;10.19;100.00;95244.75;5029608;28;19917;-50
2023/09/23 02:35:13;;;;;;;;;;;14.70;60.90;;;10.15;100.00;95253.53;5024032;28;19940;-49
2023/09/23 02:37:45;;;;;;;;;;;14.70;60.90;;;10.12;100.00;95248.75;5030000;28;19951;-50
2023/09/23 02:40:15;;;;;;;;;;;14.70;61.00;;;10.07;100.00;95257.56;5031211;28;19908;-49
2023/09/23 02:42:47;;;;;;;;;;;14.70;61.00;;;10.05;100.00;95256.22;5029504;28;19989;-51
2023/09/23 02:45:15;;;;;;;;;;;14.60;61.00;;;10.01;100.00;95261.28;5024630;28;20233;-50
2023/09/23 02:47:46;;;;;;;;;;;14.60;61.00;;;9.98;100.00;95266.34;5030886;28;19944;-51
2023/09/23 02:50:13;;;;;;;;;;;14.60;61.10;;;9.95;100.00;95265.00;5029160;28;19909;-50
2023/09/23 02:52:40;;;;;;;;;;;14.50;61.00;;;9.91;100.00;95275.41;5030300;28;20321;-51
2023/09/23 02:55:12;;;;;;;;;;;14.50;61.10;;;9.92;100.00;95271.66;5029874;28;19939;-50
2023/09/23 02:57:40;;;;;;;;;;;14.50;61.20;;;9.91;100.00;95269.28;5030835;28;19975;-49
2023/09/23 03:00:29;;;;;;;;;;;14.40;61.20;;;9.89;100.00;95261.56;5030754;28;19915;-50
2023/09/23 03:02:58;;;;;;;;;;;14.40;61.30;;;9.86;100.00;95263.97;5022945;28;19915;-51
2023/09/23 03:05:28;;;;;;;;;;;14.40;61.40;;;9.85;100.00;95273.00;5030663;28;20348;-49
2023/09/23 03:07:59;;;;;;;;;;;14.30;61.40;;;9.84;100.00;95279.38;5027960;28;19951;-51
2023/09/23 03:11:02;;;;;;;;;;;14.30;61.50;;;9.83;100.00;95283.09;5030703;28;19915;-54
2023/09/23 03:13:19;;;;;;;;;;;14.30;61.50;;;9.80;100.00;95281.78;5022568;28;19908;-54
2023/09/23 03:15:52;;;;;;;;;;;14.30;61.60;;;9.78;100.00;95288.41;5024325;28;20386;-51
2023/09/23 03:18:28;;;;;;;;;;;14.30;61.60;;;9.78;100.00;95283.91;5030807;28;19908;-54
2023/09/23 03:21:03;;;;;;;;;;;14.20;61.70;;;9.78;100.00;95285.75;5029880;28;19909;-50
2023/09/23 03:23:29;;;;;;;;;;;14.20;61.70;;;9.76;100.00;95293.22;5031056;28;19909;-54
2023/09/23 03:25:56;;;;;;;;;;;14.20;61.80;;;9.77;100.00;95284.97;5029506;28;19909;-56
2023/09/23 03:28:22;;;;;;;;;;;14.20;61.80;;;9.76;100.00;95291.34;5030609;28;19995;-50
2023/09/23 03:30:49;;;;;;;;;;;14.20;61.90;;;9.74;100.00;95290.81;5029546;28;19912;-54
2023/09/23 03:33:20;;;;;;;;;;;14.20;61.90;;;9.71;100.00;95300.16;5029094;28;19936;-49
2023/09/23 03:35:46;;;;;;;;;;;14.20;61.90;;;9.66;100.00;95288.72;5030485;28;19909;-54
2023/09/23 03:38:13;;;;;;;;;;;14.20;61.90;;;9.65;100.00;95287.09;5029644;28;19916;-54
2023/09/23 03:40:39;;;;;;;;;;;14.20;61.90;;;9.63;100.00;95294.56;5029926;28;20438;-50
2023/09/23 03:43:05;;;;;;;;;;;14.20;62.00;;;9.62;100.00;95298.25;5028449;28;20030;-50
2023/09/23 03:45:35;;;;;;;;;;;14.20;61.90;;;9.60;100.00;95300.41;5021228;28;20376;-50
2023/09/23 03:48:01;;;;;;;;;;;14.20;62.00;;;9.59;100.00;95304.94;5026125;28;19916;-49
2023/09/23 03:50:29;;;;;;;;;;;14.10;61.90;;;9.58;100.00;95315.81;5018393;28;20376;-51
2023/09/23 03:52:55;;;;;;;;;;;14.20;62.00;;;9.58;100.00;95315.81;5027622;28;19958;-49
2023/09/23 03:55:21;;;;;;;;;;;14.10;62.70;;;9.57;100.00;95320.34;5021659;28;20358;-49
2023/09/23 03:57:47;;;;;;;;;;;14.10;62.00;;;9.56;100.00;95312.59;5019926;28;20382;-49
2023/09/23 04:00:16;;;;;;;;;;;14.10;62.10;;;9.54;100.00;95322.72;5023224;28;19919;-50
2023/09/23 04:02:44;;;;;;;;;;;14.10;62.00;;;9.54;100.00;95320.06;5023436;28;19909;-50
2023/09/23 04:05:10;;;;;;;;;;;14.10;62.10;;;9.53;100.00;95321.94;5026859;28;19908;-51
2023/09/23 04:07:39;;;;;;;;;;;14.10;62.10;;;9.51;100.00;95326.72;5022241;28;20365;-51
2023/09/23 04:10:07;;;;;;;;;;;14.10;62.20;;;9.49;100.00;95334.13;5025469;28;20012;-53
2023/09/23 04:12:33;;;;;;;;;;;14.00;62.10;;;9.48;100.00;95332.56;5019121;28;20399;-51
2023/09/23 04:14:59;;;;;;;;;;;14.10;62.20;;;9.47;100.00;95337.06;5024590;28;19932;-49
2023/09/23 04:17:25;;;;;;;;;;;14.00;62.20;;;9.46;100.00;95339.97;5026117;28;20369;-51
2023/09/23 04:19:50;;;;;;;;;;;14.00;62.30;;;9.44;100.00;95337.59;5023023;28;20401;-51
2023/09/23 04:22:18;;;;;;;;;;;14.00;62.30;;;9.44;100.00;95345.56;5024982;28;19909;-49
2023/09/23 04:24:43;;;;;;;;;;;14.00;62.40;;;9.44;100.00;95337.59;5028378;28;19913;-49
2023/09/23 04:27:10;;;;;;;;;;;14.00;62.40;;;9.45;100.00;95341.06;5021940;28;20494;-50
2023/09/23 04:29:36;;;;;;;;;;;14.00;62.50;;;9.43;100.00;95338.66;5026617;28;19962;-49
2023/09/23 04:32:03;;;;;;;;;;;13.90;62.40;;;9.43;100.00;95341.31;5019829;28;19916;-51
2023/09/23 04:34:29;;;;;;;;;;;13.90;62.50;;;9.44;100.00;95342.91;5024387;28;19909;-49
2023/09/23 04:36:56;;;;;;;;;;;14.00;62.60;;;9.45;100.00;95346.38;5023055;28;19958;-51
2023/09/23 04:39:22;;;;;;;;;;;13.90;62.60;;;9.44;100.00;95353.56;5017961;28;19913;-51
2023/09/23 04:41:48;;;;;;;;;;;13.90;62.60;;;9.43;100.00;95345.81;5020494;28;19912;-49
2023/09/23 04:44:14;;;;;;;;;;;13.90;62.70;;;9.45;100.00;95355.13;5024862;28;19919;-52
2023/09/23 04:46:40;;;;;;;;;;;13.90;62.70;;;9.45;100.00;95355.13;5022987;28;19963;-49
2023/09/23 04:49:06;;;;;;;;;;;13.90;62.80;;;9.43;100.00;95359.94;5020473;28;20335;-53
2023/09/23 04:51:31;;;;;;;;;;;13.90;62.90;;;9.43;100.00;95357.28;5020572;28;19913;-51
2023/09/23 04:53:57;;;;;;;;;;;13.90;62.90;;;9.41;100.00;95361.25;5026594;28;20003;-51
2023/09/23 04:56:23;;;;;;;;;;;13.90;62.90;;;9.39;100.00;95358.84;5025971;28;19913;-55
2023/09/23 04:58:49;;;;;;;;;;;13.90;62.90;;;9.39;100.00;95356.19;5025110;28;19909;-49
2023/09/23 05:01:15;;;;;;;;;;;13.90;63.70;;;9.38;100.00;95365.22;5028642;28;19909;-52
2023/09/23 05:03:42;;;;;;;;;;;13.90;63.00;;;9.39;100.00;95366.03;5017096;28;19916;-54
2023/09/23 05:06:09;;;;;;;;;;;13.90;63.10;;;9.42;100.00;95373.47;5024669;28;19913;-50
2023/09/23 05:08:35;;;;;;;;;;;13.90;63.10;;;9.38;100.00;95370.56;5021921;28;19913;-55
2023/09/23 05:11:02;;;;;;;;;;;13.90;63.10;;;9.39;100.00;95381.97;5027346;28;19916;-52
2023/09/23 05:13:29;;;;;;;;;;;13.90;63.10;;;9.39;100.00;95382.78;5028682;28;19912;-50
2023/09/23 05:15:55;;;;;;;;;;;13.90;63.10;;;9.39;100.00;95379.31;5031405;28;19913;-53
2023/09/23 05:18:23;;;;;;;;;;;13.90;63.10;;;9.38;100.00;95388.38;5028418;28;19920;-49
2023/09/23 05:20:49;;;;;;;;;;;13.90;63.10;;;9.33;100.00;95383.81;5022276;28;20368;-50
2023/09/23 05:23:15;;;;;;;;;;;13.90;63.10;;;9.35;100.00;95391.53;5022557;28;19915;-49
2023/09/23 05:25:41;;;;;;;;;;;13.90;63.10;;;9.36;100.00;95395.78;5029505;28;19972;-53
2023/09/23 05:28:07;;;;;;;;;;;13.90;63.20;;;9.34;100.00;95393.41;5020277;28;19916;-51
2023/09/23 05:30:33;;;;;;;;;;;13.90;63.20;;;9.34;100.00;95396.06;5026119;28;20360;-52
2023/09/23 05:32:58;;;;;;;;;;;13.90;63.20;;;9.29;100.00;95401.34;5025308;28;19917;-54
2023/09/23 05:35:25;;;;;;;;;;;13.90;63.30;;;9.33;100.00;95404.28;5032202;28;19932;-52
2023/09/23 05:37:51;;;;;;;;;;;13.90;63.30;;;9.36;100.00;95406.41;5031827;28;19912;-54
2023/09/23 05:40:23;;;;;;;;;;;13.90;63.30;;;9.36;100.00;95412.53;5032563;28;20020;-55
2023/09/23 05:42:54;;;;;;;;;;;13.90;63.40;;;9.37;100.00;95416.81;5031539;28;19988;-56
2023/09/23 05:45:24;;;;;;;;;;;13.90;63.40;;;9.36;100.00;95415.19;5031171;28;20003;-49
2023/09/23 05:47:53;;;;;;;;;;;14.00;63.50;;;9.40;100.00;95413.63;5024352;28;19931;-55
2023/09/23 05:50:20;;;;;;;;;;;14.00;63.50;;;9.42;100.00;95419.47;5032169;28;20331;-55
2023/09/23 05:52:47;;;;;;;;;;;14.00;63.50;;;9.44;100.00;95425.34;5027485;28;19909;-50
2023/09/23 05:55:14;;;;;;;;;;;14.10;63.50;;;9.47;100.00;95424.03;5029752;28;20407;-54
2023/09/23 05:57:41;;;;;;;;;;;14.10;63.40;;;9.47;100.00;95424.03;5031489;28;19920;-53
2023/09/23 06:00:10;;;;;;;;;;;14.10;63.30;;;9.52;100.00;95428.53;5030784;28;20326;-51
2023/09/23 06:02:37;;;;;;;;;;;14.20;63.40;;;9.55;100.00;95436.00;5030533;28;19908;-55
2023/09/23 06:05:03;;;;;;;;;;;14.20;63.30;;;9.57;100.00;95431.22;5030445;28;19909;-50
2023/09/23 06:07:33;;;;;;;;;;;14.20;63.30;;;9.60;100.00;95438.69;5031106;28;19948;-51
2023/09/23 06:09:59;;;;;;;;;;;14.30;63.30;;;9.60;100.00;95438.69;5032250;28;20007;-55
2023/09/23 06:12:32;;;;;;;;;;;14.30;63.20;;;9.63;100.00;95441.63;5031264;28;19909;-52
2023/09/23 06:14:59;;;;;;;;;;;14.40;63.20;;;9.65;100.00;95446.66;5032363;28;20325;-52
2023/09/23 06:17:27;;;;;;;;;;;14.50;63.20;;;9.69;100.00;95445.09;5031729;28;19919;-53
2023/09/23 06:19:56;;;;;;;;;;;14.50;63.10;;;9.72;100.00;95448.03;5030911;28;19909;-56
2023/09/23 06:22:23;;;;;;;;;;;14.60;63.10;;;9.77;100.00;95441.91;5031858;28;19909;-50
2023/09/23 06:24:52;;;;;;;;;;;14.60;63.10;;;9.80;100.00;95446.69;5031593;28;19920;-49
2023/09/23 06:27:19;;;;;;;;;;;14.70;63.00;;;9.82;100.00;95449.91;5029230;28;19912;-51
2023/09/23 06:29:46;;;;;;;;;;;14.70;62.90;;;9.86;100.00;95458.97;5030851;28;20371;-51
2023/09/23 06:32:12;;;;;;;;;;;14.80;62.90;;;9.89;100.00;95466.41;5025710;28;20051;-50
2023/09/23 06:34:38;;;;;;;;;;;14.90;62.90;;;9.93;100.00;95461.34;5030000;28;19936;-51
2023/09/23 06:37:05;;;;;;;;;;;14.90;62.90;;;9.99;100.00;95464.84;5033931;28;19916;-49
2023/09/23 06:39:30;;;;;;;;;;;15.00;62.80;;;9.99;100.00;95464.84;5032761;28;19913;-50
2023/09/23 06:41:56;;;;;;;;;;;15.10;62.70;;;10.04;100.00;95467.53;5013511;28;19915;-53
2023/09/23 06:44:22;;;;;;;;;;;15.10;62.60;;;10.06;100.00;95470.69;5033629;28;19962;-50
2023/09/23 06:46:50;;;;;;;;;;;15.20;62.60;;;10.09;100.00;95473.66;5031033;28;19909;-52
2023/09/23 06:49:17;;;;;;;;;;;15.20;62.50;;;10.06;100.00;95484.81;5026455;28;19908;-52
2023/09/23 06:51:43;;;;;;;;;;;15.30;62.50;;;10.11;100.00;95495.47;5031215;28;19920;-52
2023/09/23 06:54:09;;;;;;;;;;;15.30;62.40;;;10.15;100.00;95491.22;5031341;28;20008;-55
2023/09/23 06:56:36;;;;;;;;;;;15.40;62.40;;;10.22;100.00;95492.84;5030022;28;20007;-54
2023/09/23 06:59:02;;;;;;;;;;;15.40;62.30;;;10.31;100.00;95501.91;5030838;28;19919;-51
2023/09/23 07:01:28;;;;;;;;;;;15.50;62.40;;;10.39;100.00;95504.84;5030496;28;20007;-51
2023/09/23 07:03:54;;;;;;;;;;;15.60;62.30;;;10.37;100.00;95503.53;5031147;28;19915;-54
2023/09/23 07:06:20;;;;;;;;;;;15.70;62.30;;;10.32;100.00;95512.31;5030950;28;19908;-53
2023/09/23 07:08:46;;;;;;;;;;;15.70;62.10;;;10.43;100.00;95515.78;5029203;28;19978;-50
2023/09/23 07:11:13;;;;;;;;;;;15.80;62.10;;;10.54;100.00;95514.72;5030816;28;20379;-51
2023/09/23 07:13:39;;;;;;;;;;;15.90;62.00;;;10.63;100.00;95525.66;5029945;28;19931;-50
2023/09/23 07:16:05;;;;;;;;;;;16.00;62.00;;;10.72;100.00;95525.91;5024676;28;19916;-50
2023/09/23 07:18:31;;;;;;;;;;;16.10;62.00;;;10.84;100.00;95532.59;5030016;28;20007;-50
2023/09/23 07:20:57;;;;;;;;;;;16.20;62.00;;;10.91;100.00;95532.31;5023951;28;19989;-48
2023/09/23 07:23:24;;;;;;;;;;;16.30;61.90;;;10.94;100.00;95544.31;5032052;23;19920;-43
2023/09/23 07:25:50;;;;;;;;;;;16.40;61.70;;;11.04;100.00;95541.66;5022816;28;20367;-44
2023/09/23 07:28:16;;;;;;;;;;;16.50;62.30;;;11.14;100.00;95544.28;5024128;28;19909;-43
2023/09/23 07:30:42;;;;;;;;;;;16.60;61.50;;;11.25;100.00;95551.22;5018992;28;19924;-43
2023/09/23 07:33:08;;;;;;;;;;;16.70;61.30;;;11.29;100.00;95557.59;5023212;28;19919;-43
2023/09/23 07:35:35;;;;;;;;;;;16.80;61.20;;;11.44;100.00;95554.13;5020106;28;20286;-43
2023/09/23 07:38:02;;;;;;;;;;;16.80;61.10;;;11.54;100.00;95553.28;5018779;28;19913;-44
2023/09/23 07:40:30;;;;;;;;;;;17.00;61.10;;;11.67;100.00;95565.25;5022348;28;19943;-43
2023/09/23 07:42:56;;;;;;;;;;;17.10;61.10;;;11.79;100.00;95558.53;5025238;28;20321;-42
2023/09/23 07:45:22;;;;;;;;;;;17.20;61.10;;;11.81;100.00;95559.09;5023924;28;19952;-45
2023/09/23 07:47:48;;;;;;;;;;;17.30;61.60;;;12.00;100.00;95572.66;5026034;28;19959;-42
2023/09/23 07:50:15;;;;;;;;;;;17.50;60.70;;;12.16;100.00;95576.06;5026427;28;20070;-42
2023/09/23 07:52:41;;;;;;;;;;;17.70;60.60;;;12.25;100.00;95582.41;5025136;28;19961;-43
2023/09/23 07:55:07;;;;;;;;;;;17.90;60.60;;;12.40;100.00;95586.06;5025967;28;19908;-43
2023/09/23 07:57:33;;;;;;;;;;;18.00;60.20;;;12.60;100.00;95580.63;5024946;28;19935;-45
2023/09/23 08:00:00;;;;;;;;;;;18.20;60.00;;;12.74;100.00;95589.59;5025387;28;19913;-48
2023/09/23 08:02:25;;;;;;;;;;;18.40;60.00;;;12.76;95.43;95591.22;5016576;28;19917;-51
2023/09/23 08:04:51;;;;;;;;;;;18.50;59.60;;;12.85;96.70;95602.88;5018560;28;19916;-42
2023/09/23 08:07:17;;;;;;;;;;;18.60;59.40;;;13.00;96.30;95608.13;5016878;28;19974;-43
2023/09/23 08:09:44;;;;;;;;;;;18.80;59.30;;;13.11;91.15;95614.22;5021420;28;19913;-45
2023/09/23 08:12:09;;;;;;;;;;;18.90;59.20;;;13.13;89.75;95609.38;5006421;28;19912;-44
2023/09/23 08:14:35;;;;;;;;;;;19.00;59.00;;;13.37;92.74;95614.81;5021393;28;19909;-44
2023/09/23 08:17:02;;;;;;;;;;;19.10;58.80;;;13.45;91.54;95613.44;5025198;28;20489;-43
2023/09/23 08:19:28;;;;;;;;;;;19.30;58.70;;;13.48;88.17;95627.03;5028630;28;19909;-42
2023/09/23 08:21:54;;;;;;;;;;;19.40;58.60;;;13.56;89.62;95621.06;5021405;28;20303;-43
2023/09/23 08:24:20;;;;;;;;;;;19.50;58.40;;;13.75;89.91;95615.00;5028815;28;20006;-43
2023/09/23 08:26:47;;;;;;;;;;;19.60;58.20;;;13.77;85.27;95621.66;5030413;28;19995;-44
2023/09/23 08:29:14;;;;;;;;;;;19.80;58.20;;;13.74;86.51;95627.59;5018639;28;19913;-42
2023/09/23 08:31:40;;;;;;;;;;;19.80;57.80;;;13.93;84.85;95627.66;5021215;28;19913;-43
2023/09/23 08:34:09;;;;;;;;;;;19.90;57.60;;;13.85;84.24;95629.09;5018894;28;20282;-44
2023/09/23 08:36:36;;;;;;;;;;;20.00;57.50;;;13.80;84.71;95628.34;5023529;28;20291;-43
2023/09/23 08:39:05;;;;;;;;;;;20.10;57.40;;;13.86;84.36;95629.88;5022201;28;19992;-43
2023/09/23 08:41:33;;;;;;;;;;;20.10;57.10;;;13.72;83.23;95631.63;5022250;28;19967;-44
2023/09/23 08:44:05;;;;;;;;;;;20.20;57.00;;;13.86;83.07;95627.22;5008037;28;19912;-45
2023/09/23 08:46:32;;;;;;;;;;;20.20;56.70;;;13.80;84.39;95628.34;5024443;28;19909;-44
2023/09/23 08:48:59;;;;;;;;;;;20.20;56.60;;;13.98;82.05;95626.81;5016997;28;19917;-42
2023/09/23 08:51:27;;;;;;;;;;;20.30;56.50;;;14.12;83.06;95641.91;5032506;28;19932;-42
2023/09/23 08:53:54;;;;;;;;;;;20.30;56.50;;;14.24;83.31;95643.41;5032304;28;19909;-47
2023/09/23 08:56:21;;;;;;;;;;;20.40;56.40;;;14.34;81.60;95643.28;5031244;28;20405;-44
2023/09/23 08:58:48;;;;;;;;;;;20.50;56.40;;;14.60;81.57;95651.03;5032931;28;19908;-44
2023/09/23 09:01:16;;;;;;;;;;;20.60;56.30;;;14.61;81.02;95655.31;5031490;28;20012;-43
2023/09/23 09:03:44;;;;;;;;;;;20.70;56.20;;;14.71;79.64;95652.50;5032527;28;19915;-43
2023/09/23 09:06:18;;;;;;;;;;;20.70;56.00;;;14.65;77.95;95657.13;5015435;28;19913;-44
2023/09/23 09:08:44;;;;;;;;;;;20.80;55.80;;;14.69;79.01;95660.03;5031818;28;19912;-43
2023/09/23 09:11:10;;;;;;;;;;;20.80;55.50;;;14.69;77.30;95665.38;5033028;28;19924;-43
2023/09/23 09:13:36;;;;;;;;;;;20.90;55.50;;;14.84;78.80;95664.38;5031334;28;19915;-43
2023/09/23 09:16:06;;;;;;;;;;;20.90;55.40;;;14.93;79.75;95666.13;5032872;28;19934;-43
2023/09/23 09:18:32;;;;;;;;;;;21.00;55.30;;;14.92;81.18;95661.84;5032663;28;19917;-45
2023/09/23 09:20:58;;;;;;;;;;;21.00;55.20;;;15.05;78.71;95663.00;5032385;28;19915;-44
2023/09/23 09:23:32;;;;;;;;;;;21.10;55.20;;;15.24;77.66;95671.84;5032225;28;19917;-43
2023/09/23 09:25:59;;;;;;;;;;;21.20;55.10;;;15.33;78.55;95672.00;5030595;28;19909;-43
2023/09/23 09:28:25;;;;;;;;;;;21.30;55.00;;;15.36;74.13;95679.47;5032765;28;19916;-50
2023/09/23 09:30:56;;;;;;;;;;;21.30;54.90;;;15.40;73.89;95672.41;5028938;28;19924;-42
2023/09/23 09:33:27;;;;;;;;;;;21.40;54.80;;;15.50;75.33;95676.81;5032304;28;19999;-52
2023/09/23 09:35:57;;;;;;;;;;;21.40;54.70;;;15.42;74.94;95675.59;5024940;28;20370;-44
2023/09/23 09:38:26;;;;;;;;;;;21.50;54.60;;;15.60;76.01;95673.16;5030100;28;20446;-48
2023/09/23 09:41:02;;;;;;;;;;;21.50;54.60;;;15.64;75.73;95676.88;5007118;28;20278;-48
2023/09/23 09:43:31;;;;;;;;;;;21.60;54.60;;;15.70;76.68;95681.09;5030539;28;20011;-44
2023/09/23 09:46:01;;;;;;;;;;;21.60;54.50;;;15.77;73.02;95667.28;5031992;28;19947;-46
2023/09/23 09:48:30;;;;;;;;;;;21.60;54.40;;;15.82;71.34;95672.56;5018893;28;19908;-43
2023/09/23 09:50:56;;;;;;;;;;;21.60;54.20;;;15.82;73.03;95672.56;5009651;28;19970;-43
2023/09/23 09:53:25;;;;;;;;;;;21.60;54.00;;;15.82;72.18;95667.19;5030748;28;19915;-46
2023/09/23 09:55:51;;;;;;;;;;;21.60;54.00;;;15.92;72.51;95670.50;5019133;28;19912;-42
2023/09/23 09:58:17;;;;;;;;;;;21.60;54.00;;;16.05;73.79;95668.13;5008326;28;19909;-42
2023/09/23 10:00:45;;;;;;;;;;;21.70;54.00;;;16.06;73.93;95675.09;5011788;28;19967;-43
2023/09/23 10:03:13;;;;;;;;;;;21.80;53.80;;;16.03;70.34;95673.00;5027841;28;19909;-43
2023/09/23 10:05:47;;;;;;;;;;;21.80;53.70;;;16.04;68.58;95667.31;5023724;28;20007;-44
2023/09/23 10:08:27;;;;;;;;;;;21.90;53.50;;;16.22;73.71;95672.91;5034928;28;19913;-45
2023/09/23 10:11:04;;;;;;;;;;;22.10;53.50;;;16.26;72.35;95663.94;5014713;28;20008;-46
2023/09/23 10:13:33;;;;;;;;;;;22.20;53.40;;;16.33;72.31;95674.31;5025562;28;19908;-46
2023/09/23 10:16:27;;;;;;;;;;;22.40;53.40;;;16.40;71.24;95670.13;5024612;28;20070;-45
2023/09/23 10:18:56;;;;;;;;;;;22.30;53.20;;;16.35;68.04;95672.13;5025930;28;20354;-44
2023/09/23 10:21:29;;;;;;;;;;;22.30;53.20;;;15.95;67.57;95669.91;5020037;28;19935;-45
2023/09/23 10:23:57;;;;;;;;;;;22.10;53.00;;;15.98;68.73;95671.19;5023276;28;19917;-43
2023/09/23 10:26:28;;;;;;;;;;;22.00;53.00;;;15.95;66.42;95669.91;5019882;28;19909;-46
2023/09/23 10:29:00;;;;;;;;;;;21.90;53.00;;;15.89;70.09;95671.09;5023559;28;19909;-43
2023/09/23 10:31:34;;;;;;;;;;;21.70;52.90;;;15.91;70.41;95668.09;5027251;28;20298;-42
2023/09/23 10:34:10;;;;;;;;;;;21.60;52.90;;;15.94;72.22;95672.88;5019301;28;19913;-44
2023/09/23 10:36:36;;;;;;;;;;;21.60;53.00;;;15.91;68.39;95665.41;5020068;28;19913;-46
2023/09/23 10:39:15;;;;;;;;;;;21.60;53.00;;;15.94;67.32;95664.81;5008576;28;19915;-44
2023/09/23 10:41:41;;;;;;;;;;;21.60;52.90;;;15.94;66.20;95652.19;5019103;28;20371;-43
2023/09/23 10:44:08;;;;;;;;;;;21.60;52.70;;;16.04;66.96;95664.63;5017680;28;19908;-43
2023/09/23 10:46:34;;;;;;;;;;;21.70;52.50;;;16.18;64.38;95661.97;5021566;28;19916;-42
2023/09/23 10:49:01;;;;;;;;;;;21.80;52.40;;;16.19;65.37;95672.41;5028193;28;19955;-43
2023/09/23 10:51:27;;;;;;;;;;;22.00;52.00;;;16.19;66.17;95668.94;5019624;28;20008;-43
2023/09/23 10:53:55;;;;;;;;;;;22.20;51.60;;;16.39;68.53;95671.22;5025672;28;19935;-45
2023/09/23 10:56:22;;;;;;;;;;;22.40;51.60;;;16.65;67.56;95660.75;5016608;28;19921;-42
2023/09/23 10:58:51;;;;;;;;;;;22.60;51.50;;;16.81;63.53;95666.63;5026055;28;20372;-43
2023/09/23 11:01:20;;;;;;;;;;;22.80;51.40;;;16.83;62.86;95666.34;5023430;28;20363;-43
2023/09/23 11:03:46;;;;;;;;;;;22.90;51.10;;;16.93;65.68;95679.56;5029637;28;20634;-44
2023/09/23 11:06:15;;;;;;;;;;;23.00;51.00;;;17.02;65.09;95677.75;5030796;28;20371;-44
2023/09/23 11:08:41;;;;;;;;;;;23.00;50.90;;;16.84;62.78;95679.47;5023851;28;19908;-46
2023/09/23 11:11:09;;;;;;;;;;;23.10;50.80;;;16.92;63.97;95677.16;5030708;28;20387;-43
2023/09/23 11:13:35;;;;;;;;;;;23.10;50.50;;;16.96;65.47;95675.47;5028975;28;19909;-42
2023/09/23 11:16:09;;;;;;;;;;;23.00;50.40;;;17.13;65.88;95681.00;5016747;28;19916;-42
2023/09/23 11:18:37;;;;;;;;;;;23.20;50.50;;;17.23;61.87;95678.06;5016989;28;19912;-43